Time,TemperatureF,DewpointF,PressureIn,WindDirection,WindDirectionDegrees,WindSpeedMPH,WindSpeedGustMPH,Humidity,HourlyPrecipIn,Conditions,Clouds,dailyrainin,SoftwareType,DateUTC
2013-03-20 00:20:00,23.9,13.0,30.19,North,5,3.0,12.0,64,0.00,,,0.00,weatherlink.com 1.10,2013-03-20 05:20:00,
2013-03-20 00:35:00,22.8,12.0,30.20,NNE,19,3.0,12.0,63,0.00,,,0.00,weatherlink.com 1.10,2013-03-20 05:35:00,
2013-03-20 01:05:00,21.8,13.0,30.20,NNW,335,1.0,9.0,68,0.00,,,0.00,weatherlink.com 1.10,2013-03-20 06:05:00,
2013-03-20 01:20:00,21.4,12.0,30.20,North,5,1.0,10.0,67,0.00,,,0.00,weatherlink.com 1.10,2013-03-20 06:20:00,
2013-03-20 01:36:00,21.1,12.0,30.20,NW,312,5.0,12.0,68,0.00,,,0.00,weatherlink.com 1.10,2013-03-20 06:36:00,
2013-03-20 01:51:00,20.8,12.0,30.21,NNW,335,1.0,5.0,70,0.00,,,0.00,weatherlink.com 1.10,2013-03-20 06:51:00,
2013-03-20 02:06:00,20.6,12.0,30.21,North,355,5.0,8.0,70,0.00,,,0.00,weatherlink.com 1.10,2013-03-20 07:06:00,
2013-03-20 02:21:00,20.3,13.0,30.22,North,360,0.0,8.0,72,0.00,,,0.00,weatherlink.com 1.10,2013-03-20 07:21:00,
2013-03-20 02:36:00,20.0,12.0,30.22,North,10,11.0,11.0,71,0.00,,,0.00,weatherlink.com 1.10,2013-03-20 07:36:00,
2013-03-20 02:51:00,19.7,11.0,30.22,NNW,344,1.0,7.0,70,0.00,,,0.00,weatherlink.com 1.10,2013-03-20 07:51:00,
2013-03-20 03:06:00,19.4,11.0,30.22,NW,317,0.0,7.0,71,0.00,,,0.00,weatherlink.com 1.10,2013-03-20 08:06:00,
2013-03-20 03:21:00,19.1,11.0,30.22,NNW,327,4.0,6.0,72,0.00,,,0.00,weatherlink.com 1.10,2013-03-20 08:21:00,
2013-03-20 03:51:00,18.6,11.0,30.22,NW,314,1.0,9.0,71,0.00,,,0.00,weatherlink.com 1.10,2013-03-20 08:51:00,
2013-03-20 04:06:00,18.2,11.0,30.22,NW,312,1.0,8.0,72,0.00,,,0.00,weatherlink.com 1.10,2013-03-20 09:06:00,
2013-03-20 04:22:00,18.0,11.0,30.22,NW,321,2.0,8.0,73,0.00,,,0.00,weatherlink.com 1.10,2013-03-20 09:22:00,
2013-03-20 04:36:00,17.8,11.0,30.22,NNW,333,5.0,8.0,74,0.00,,,0.00,weatherlink.com 1.10,2013-03-20 09:36:00,
2013-03-20 04:51:00,17.7,11.0,30.23,NW,324,4.0,8.0,75,0.00,,,0.00,weatherlink.com 1.10,2013-03-20 09:51:00,
2013-03-20 05:06:00,17.5,11.0,30.23,NW,319,6.0,8.0,77,0.00,,,0.00,weatherlink.com 1.10,2013-03-20 10:06:00,
2013-03-20 05:21:00,17.3,11.0,30.23,NNE,18,2.0,8.0,76,0.00,,,0.00,weatherlink.com 1.10,2013-03-20 10:21:00,
2013-03-20 05:36:00,17.2,11.0,30.23,NW,312,0.0,7.0,76,0.00,,,0.00,weatherlink.com 1.10,2013-03-20 10:36:00,
2013-03-20 05:52:00,17.0,11.0,30.24,North,355,5.0,15.0,76,0.00,,,0.00,weatherlink.com 1.10,2013-03-20 10:52:00,
2013-03-20 06:07:00,16.7,10.0,30.24,NNW,330,5.0,10.0,74,0.00,,,0.00,weatherlink.com 1.10,2013-03-20 11:07:00,
2013-03-20 06:22:00,16.4,9.0,30.25,NE,44,0.0,11.0,71,0.00,,,0.00,weatherlink.com 1.10,2013-03-20 11:22:00,
2013-03-20 06:37:00,16.1,7.0,30.25,NE,36,0.0,11.0,68,0.00,,,0.00,weatherlink.com 1.10,2013-03-20 11:37:00,
2013-03-20 06:52:00,15.8,6.0,30.25,NNW,348,0.0,14.0,65,0.00,,,0.00,weatherlink.com 1.10,2013-03-20 11:52:00,
2013-03-20 07:06:00,15.5,6.0,30.25,NW,316,3.0,7.0,66,0.00,,,0.00,weatherlink.com 1.10,2013-03-20 12:06:00,
2013-03-20 07:22:00,15.3,6.0,30.25,North,355,2.0,6.0,67,0.00,,,0.00,weatherlink.com 1.10,2013-03-20 12:22:00,
2013-03-20 07:37:00,15.0,7.0,30.25,North,355,3.0,9.0,69,0.00,,,0.00,weatherlink.com 1.10,2013-03-20 12:37:00,
2013-03-20 07:52:00,14.9,7.0,30.25,NE,40,0.0,9.0,71,0.00,,,0.00,weatherlink.com 1.10,2013-03-20 12:52:00,
2013-03-20 08:07:00,14.9,7.0,30.25,North,350,4.0,7.0,72,0.00,,,0.00,weatherlink.com 1.10,2013-03-20 13:07:00,
2013-03-20 08:21:00,15.2,7.0,30.26,NNW,336,1.0,9.0,70,0.00,,,0.00,weatherlink.com 1.10,2013-03-20 13:21:00,
2013-03-20 08:36:00,15.5,7.0,30.25,ENE,59,1.0,10.0,68,0.00,,,0.00,weatherlink.com 1.10,2013-03-20 13:36:00,
2013-03-20 08:52:00,16.2,6.0,30.25,North,355,3.0,11.0,64,0.00,,,0.00,weatherlink.com 1.10,2013-03-20 13:52:00,
2013-03-20 09:07:00,17.1,6.0,30.25,NNW,348,0.0,13.0,62,0.00,,,0.00,weatherlink.com 1.10,2013-03-20 14:07:00,
2013-03-20 09:37:00,18.5,5.0,30.25,North,5,2.0,8.0,57,0.00,,,0.00,weatherlink.com 1.10,2013-03-20 14:37:00,
2013-03-20 09:52:00,18.9,6.0,30.25,NW,318,1.0,12.0,57,0.00,,,0.00,weatherlink.com 1.10,2013-03-20 14:52:00,
2013-03-20 10:06:00,19.2,6.0,30.24,NW,320,6.0,9.0,57,0.00,,,0.00,weatherlink.com 1.10,2013-03-20 15:06:00,
2013-03-20 10:22:00,20.0,6.0,30.25,NNW,348,0.0,10.0,55,0.00,,,0.00,weatherlink.com 1.10,2013-03-20 15:22:00,
2013-03-20 10:37:00,20.9,7.0,30.24,NNW,344,2.0,7.0,55,0.00,,,0.00,weatherlink.com 1.10,2013-03-20 15:37:00,
2013-03-20 10:52:00,21.4,7.0,30.24,NNW,348,0.0,9.0,53,0.00,,,0.00,weatherlink.com 1.10,2013-03-20 15:52:00,
2013-03-20 11:06:00,22.2,7.0,30.25,NNE,14,5.0,11.0,52,0.00,,,0.00,weatherlink.com 1.10,2013-03-20 16:06:00,
2013-03-20 11:22:00,22.8,7.0,30.24,NE,38,2.0,10.0,52,0.00,,,0.00,weatherlink.com 1.10,2013-03-20 16:22:00,
2013-03-20 11:37:00,23.9,7.0,30.24,NE,49,1.0,8.0,49,0.00,,,0.00,weatherlink.com 1.10,2013-03-20 16:37:00,
2013-03-20 11:52:00,24.6,7.0,30.23,NE,36,2.0,10.0,48,0.00,,,0.00,weatherlink.com 1.10,2013-03-20 16:52:00,
2013-03-20 12:06:00,24.7,7.0,30.23,North,10,5.0,8.0,48,0.00,,,0.00,weatherlink.com 1.10,2013-03-20 17:06:00,
2013-03-20 12:22:00,25.8,8.0,30.22,North,360,7.0,10.0,47,0.00,,,0.00,weatherlink.com 1.10,2013-03-20 17:22:00,
2013-03-20 12:37:00,27.1,9.0,30.22,NW,305,3.0,9.0,46,0.00,,,0.00,weatherlink.com 1.10,2013-03-20 17:37:00,
2013-03-20 12:52:00,28.7,11.0,30.21,NW,318,0.0,10.0,47,0.00,,,0.00,weatherlink.com 1.10,2013-03-20 17:52:00,
2013-03-20 13:07:00,29.4,9.0,30.19,NNW,340,2.0,11.0,42,0.00,,,0.00,weatherlink.com 1.10,2013-03-20 18:07:00,
2013-03-20 13:22:00,29.2,10.0,30.19,North,351,2.0,8.0,44,0.00,,,0.00,weatherlink.com 1.10,2013-03-20 18:22:00,
2013-03-20 13:37:00,30.5,10.0,30.18,NNW,332,0.0,7.0,43,0.00,,,0.00,weatherlink.com 1.10,2013-03-20 18:37:00,
2013-03-20 13:52:00,30.7,10.0,30.16,WNW,294,3.0,9.0,43,0.00,,,0.00,weatherlink.com 1.10,2013-03-20 18:52:00,
2013-03-20 14:08:00,31.8,11.0,30.15,NW,309,7.0,12.0,43,0.00,,,0.00,weatherlink.com 1.10,2013-03-20 19:08:00,
2013-03-20 14:22:00,32.3,10.0,30.14,NW,325,7.0,10.0,39,0.00,,,0.00,weatherlink.com 1.10,2013-03-20 19:22:00,
2013-03-20 14:37:00,32.3,10.0,30.13,WNW,295,4.0,11.0,39,0.00,,,0.00,weatherlink.com 1.10,2013-03-20 19:37:00,
2013-03-20 14:52:00,32.9,11.0,30.12,NNW,342,5.0,11.0,41,0.00,,,0.00,weatherlink.com 1.10,2013-03-20 19:52:00,
2013-03-20 15:07:00,33.3,11.0,30.11,WNW,298,3.0,11.0,39,0.00,,,0.00,weatherlink.com 1.10,2013-03-20 20:07:00,
2013-03-20 15:22:00,34.8,11.0,30.10,NE,47,0.0,9.0,38,0.00,,,0.00,weatherlink.com 1.10,2013-03-20 20:22:00,
2013-03-20 15:38:00,34.9,11.0,30.09,NW,317,2.0,9.0,38,0.00,,,0.00,weatherlink.com 1.10,2013-03-20 20:38:00,
2013-03-20 16:07:00,35.2,14.0,30.08,WSW,248,0.0,6.0,42,0.00,,,0.00,weatherlink.com 1.10,2013-03-20 21:07:00,
2013-03-20 16:22:00,36.0,13.0,30.07,WNW,303,2.0,8.0,39,0.00,,,0.00,weatherlink.com 1.10,2013-03-20 21:22:00,
2013-03-20 16:37:00,35.6,12.0,30.07,NW,315,4.0,9.0,38,0.00,,,0.00,weatherlink.com 1.10,2013-03-20 21:37:00,
2013-03-20 16:52:00,35.9,13.0,30.06,NW,313,6.0,7.0,39,0.00,,,0.00,weatherlink.com 1.10,2013-03-20 21:52:00,
2013-03-20 17:08:00,36.3,13.0,30.05,NNW,338,0.0,8.0,38,0.00,,,0.00,weatherlink.com 1.10,2013-03-20 22:08:00,
2013-03-20 17:22:00,36.3,12.0,30.05,ENE,63,3.0,10.0,37,0.00,,,0.00,weatherlink.com 1.10,2013-03-20 22:22:00,
2013-03-20 17:37:00,36.0,12.0,30.05,North,10,2.0,8.0,37,0.00,,,0.00,weatherlink.com 1.10,2013-03-20 22:37:00,
2013-03-20 17:52:00,36.1,13.0,30.04,NW,321,0.0,10.0,39,0.00,,,0.00,weatherlink.com 1.10,2013-03-20 22:52:00,
2013-03-20 18:08:00,36.1,13.0,30.03,NNW,347,0.0,6.0,38,0.00,,,0.00,weatherlink.com 1.10,2013-03-20 23:08:00,
2013-03-20 18:23:00,35.5,12.0,30.02,NE,38,2.0,7.0,38,0.00,,,0.00,weatherlink.com 1.10,2013-03-20 23:23:00,
2013-03-20 18:38:00,34.7,13.0,30.02,North,355,0.0,3.0,40,0.00,,,0.00,weatherlink.com 1.10,2013-03-20 23:38:00,
2013-03-20 18:53:00,34.0,12.0,30.01,NW,320,0.0,5.0,41,0.00,,,0.00,weatherlink.com 1.10,2013-03-20 23:53:00,
2013-03-20 19:08:00,33.5,13.0,30.01,NE,46,0.0,3.0,42,0.00,,,0.00,weatherlink.com 1.10,2013-03-21 00:08:00,
2013-03-20 19:23:00,32.4,13.0,30.01,NNE,13,0.0,4.0,44,0.00,,,0.00,weatherlink.com 1.10,2013-03-21 00:23:00,
2013-03-20 19:38:00,31.4,13.0,30.01,North,11,0.0,3.0,46,0.00,,,0.00,weatherlink.com 1.10,2013-03-21 00:38:00,
2013-03-20 19:53:00,30.6,12.0,30.01,North,5,0.0,2.0,47,0.00,,,0.00,weatherlink.com 1.10,2013-03-21 00:53:00,
2013-03-20 20:08:00,30.1,12.0,30.01,NNE,22,0.0,0.0,48,0.00,,,0.00,weatherlink.com 1.10,2013-03-21 01:08:00,
2013-03-20 20:23:00,29.6,12.0,30.01,NNE,22,0.0,0.0,49,0.00,,,0.00,weatherlink.com 1.10,2013-03-21 01:23:00,
2013-03-20 20:38:00,29.3,13.0,30.02,NNE,22,0.0,0.0,50,0.00,,,0.00,weatherlink.com 1.10,2013-03-21 01:38:00,
2013-03-20 20:53:00,28.9,13.0,30.01,NNE,22,0.0,0.0,51,0.00,,,0.00,weatherlink.com 1.10,2013-03-21 01:53:00,
2013-03-20 21:08:00,28.2,13.0,30.01,NNE,22,0.0,0.0,53,0.00,,,0.00,weatherlink.com 1.10,2013-03-21 02:08:00,
2013-03-20 21:23:00,27.5,13.0,30.01,NNE,22,0.0,0.0,55,0.00,,,0.00,weatherlink.com 1.10,2013-03-21 02:23:00,
2013-03-20 21:38:00,26.8,13.0,30.00,NNE,22,0.0,0.0,57,0.00,,,0.00,weatherlink.com 1.10,2013-03-21 02:38:00,
2013-03-20 21:53:00,26.2,13.0,30.00,NNE,22,0.0,0.0,58,0.00,,,0.00,weatherlink.com 1.10,2013-03-21 02:53:00,
2013-03-20 22:08:00,26.3,13.0,29.99,NNE,22,0.0,1.0,57,0.00,,,0.00,weatherlink.com 1.10,2013-03-21 03:08:00,
2013-03-20 22:23:00,26.1,13.0,29.99,ESE,120,0.0,3.0,57,0.00,,,0.00,weatherlink.com 1.10,2013-03-21 03:23:00,
2013-03-20 22:38:00,26.0,13.0,29.98,ESE,120,2.0,2.0,57,0.00,,,0.00,weatherlink.com 1.10,2013-03-21 03:38:00,
2013-03-20 22:54:00,26.0,13.0,29.98,ESE,120,0.0,2.0,58,0.00,,,0.00,weatherlink.com 1.10,2013-03-21 03:54:00,
2013-03-20 23:08:00,25.5,12.0,29.98,ESE,120,0.0,0.0,58,0.00,,,0.00,weatherlink.com 1.10,2013-03-21 04:08:00,
2013-03-20 23:23:00,24.9,12.0,29.98,ESE,120,0.0,0.0,59,0.00,,,0.00,weatherlink.com 1.10,2013-03-21 04:23:00,
2013-03-20 23:38:00,24.5,12.0,29.97,ESE,120,0.0,0.0,60,0.00,,,0.00,weatherlink.com 1.10,2013-03-21 04:38:00,
2013-03-20 23:54:00,24.2,12.0,29.97,ESE,120,0.0,0.0,61,0.00,,,0.00,weatherlink.com 1.10,2013-03-21 04:54:00,